Time;durP1;ratioP1;P1;durP2;ratioP2;P2;SDS_P1;SDS_P2;PMS_P1;PMS_P2;Temp;Humidity;BMP_temperature;BMP_pressure;BME280_temperature;BME280_humidity;BME280_pressure;Samples;Min_cycle;Max_cycle;Signal;HPM_P1;HPM_P2
2022/05/13 00:00:11;;;;;;;4.18;2.97;;;25.90;47.20;;;;;;5003804;28;20520;-55
2022/05/13 00:02:38;;;;;;;3.55;2.63;;;25.90;47.20;;;;;;5004838;28;20096;-54
2022/05/13 00:05:05;;;;;;;4.07;2.85;;;25.90;47.20;;;;;;5005564;28;20038;-55
2022/05/13 00:07:32;;;;;;;3.70;2.55;;;25.90;47.30;;;;;;5005033;28;20030;-56
2022/05/13 00:09:59;;;;;;;4.47;2.63;;;25.90;47.40;;;;;;5005208;28;20033;-55
2022/05/13 00:12:26;;;;;;;3.28;2.20;;;25.90;47.40;;;;;;5004317;28;20097;-54
2022/05/13 00:14:53;;;;;;;3.55;2.50;;;25.80;47.40;;;;;;5005338;28;20029;-54
2022/05/13 00:17:20;;;;;;;3.63;2.63;;;25.80;47.30;;;;;;5005066;28;20018;-54
2022/05/13 00:19:46;;;;;;;3.60;2.70;;;25.80;47.30;;;;;;5005619;28;20651;-55
2022/05/13 00:22:12;;;;;;;3.25;2.40;;;25.80;47.30;;;;;;5004353;28;20033;-56
2022/05/13 00:24:39;;;;;;;3.63;2.60;;;25.80;47.40;;;;;;5005043;28;20232;-55
2022/05/13 00:27:05;;;;;;;4.25;3.00;;;25.80;47.40;;;;;;5004599;28;20441;-56
2022/05/13 00:29:31;;;;;;;4.07;2.70;;;25.80;47.30;;;;;;5004639;28;20022;-57
2022/05/13 00:31:57;;;;;;;3.60;2.33;;;25.80;47.10;;;;;;5004868;28;20477;-54
2022/05/13 00:34:22;;;;;;;4.22;2.60;;;25.80;47.10;;;;;;5005038;28;20022;-56
2022/05/13 00:36:48;;;;;;;3.50;2.30;;;25.80;47.10;;;;;;5004077;28;20489;-56
2022/05/13 00:39:14;;;;;;;4.47;3.03;;;25.80;47.10;;;;;;5003391;28;20453;-55
2022/05/13 00:41:40;;;;;;;4.35;2.53;;;25.80;47.10;;;;;;5004492;28;20572;-54
2022/05/13 00:44:07;;;;;;;4.20;2.80;;;25.80;47.20;;;;;;5004557;28;20030;-55
2022/05/13 00:46:33;;;;;;;5.43;2.88;;;25.80;47.20;;;;;;5003931;28;20485;-54
2022/05/13 00:49:02;;;;;;;3.45;2.50;;;25.80;47.20;;;;;;5004386;28;20033;-56
2022/05/13 00:51:35;;;;;;;4.13;2.95;;;25.80;47.20;;;;;;5004127;28;20155;-56
2022/05/13 00:54:04;;;;;;;3.47;2.60;;;25.80;47.20;;;;;;5002758;28;20157;-54
2022/05/13 00:56:30;;;;;;;3.65;2.60;;;25.80;47.20;;;;;;5002559;28;20437;-54
2022/05/13 00:59:01;;;;;;;3.53;2.60;;;25.80;47.20;;;;;;5003952;28;20101;-53
2022/05/13 01:01:28;;;;;;;4.25;3.03;;;25.80;47.20;;;;;;5002749;28;20045;-56
2022/05/13 01:04:03;;;;;;;3.42;2.33;;;25.80;47.20;;;;;;5004693;28;20032;-55
2022/05/13 01:06:30;;;;;;;3.90;2.53;;;25.80;47.30;;;;;;5003010;28;20033;-53
2022/05/13 01:08:56;;;;;;;3.47;2.35;;;25.80;47.30;;;;;;5004356;28;20045;-53
2022/05/13 01:11:26;;;;;;;4.22;2.63;;;25.80;47.30;;;;;;5004151;28;20030;-53
2022/05/13 01:13:59;;;;;;;4.03;2.60;;;25.80;47.30;;;;;;5004024;28;20717;-53
2022/05/13 01:16:25;;;;;;;4.28;2.70;;;25.80;47.30;;;;;;4998781;28;20030;-53
2022/05/13 01:18:51;;;;;;;4.45;2.78;;;25.80;47.30;;;;;;5003110;28;20040;-52
2022/05/13 01:21:26;;;;;;;4.20;2.70;;;25.80;47.30;;;;;;5003334;28;20034;-53
2022/05/13 01:23:53;;;;;;;3.70;2.35;;;25.80;47.10;;;;;;5003644;28;20121;-53
2022/05/13 01:26:26;;;;;;;3.45;2.08;;;25.80;46.90;;;;;;5003539;28;20064;-53
2022/05/13 01:28:55;;;;;;;4.68;2.67;;;25.70;47.30;;;;;;5001845;28;20270;-53
2022/05/13 01:31:31;;;;;;;3.45;2.30;;;25.80;46.70;;;;;;5004393;28;20371;-53
2022/05/13 01:34:03;;;;;;;3.72;2.13;;;25.80;46.80;;;;;;5003718;28;20037;-53
2022/05/13 01:36:29;;;;;;;3.70;2.35;;;25.70;46.70;;;;;;5003920;28;20034;-53
2022/05/13 01:38:55;;;;;;;3.00;1.90;;;25.70;46.80;;;;;;5004043;28;20714;-53
2022/05/13 01:41:22;;;;;;;4.75;2.63;;;25.70;47.00;;;;;;5004140;28;20026;-53
2022/05/13 01:43:49;;;;;;;3.20;2.00;;;25.70;47.10;;;;;;5003786;28;20026;-53
2022/05/13 01:46:16;;;;;;;3.30;2.22;;;25.70;47.20;;;;;;5001376;28;20038;-53
2022/05/13 01:48:42;;;;;;;4.15;2.28;;;25.70;47.20;;;;;;5003108;28;20076;-54
2022/05/13 01:51:09;;;;;;;3.42;2.03;;;25.70;47.20;;;;;;5003373;28;20029;-54
2022/05/13 01:53:35;;;;;;;3.28;2.20;;;25.70;47.20;;;;;;5018847;28;20079;-54
2022/05/13 01:56:01;;;;;;;2.90;1.90;;;25.70;47.30;;;;;;5003363;28;20109;-52
2022/05/13 01:58:27;;;;;;;3.15;2.00;;;25.70;47.30;;;;;;5000890;28;20180;-54
2022/05/13 02:00:55;;;;;;;3.60;2.20;;;25.70;47.30;;;;;;5003003;28;20751;-55
2022/05/13 02:06:07;;;;;;;4.03;2.00;;;25.70;47.30;;;;;;5003018;28;20534;-55
2022/05/13 02:08:33;;;;;;;3.22;2.03;;;25.70;47.20;;;;;;5003840;28;20493;-52
2022/05/13 02:10:59;;;;;;;3.33;2.10;;;25.70;47.90;;;;;;5003941;28;20618;-52
2022/05/13 02:13:26;;;;;;;4.40;2.50;;;25.70;47.20;;;;;;5003147;28;20046;-54
2022/05/13 02:15:52;;;;;;;3.30;2.00;;;25.70;47.20;;;;;;5003824;28;20610;-53
2022/05/13 02:18:19;;;;;;;3.28;2.03;;;25.70;47.10;;;;;;5004418;28;20025;-53
2022/05/13 02:20:45;;;;;;;3.03;1.90;;;25.70;47.20;;;;;;5006899;28;20071;-53
2022/05/13 02:23:11;;;;;;;2.90;1.70;;;25.70;47.30;;;;;;5007190;28;20037;-56
2022/05/13 02:25:37;;;;;;;3.80;2.28;;;25.70;47.30;;;;;;5007064;28;20042;-56
2022/05/13 02:28:04;;;;;;;3.60;2.20;;;25.70;47.30;;;;;;5006984;28;20040;-54
2022/05/13 02:30:30;;;;;;;3.60;2.03;;;25.70;47.40;;;;;;5007652;28;20117;-53
2022/05/13 02:32:56;;;;;;;3.92;1.75;;;25.70;47.30;;;;;;5007176;28;20740;-52
2022/05/13 02:35:23;;;;;;;5.00;1.90;;;25.70;47.40;;;;;;5007309;28;20033;-54
2022/05/13 02:37:49;;;;;;;4.20;2.08;;;25.70;47.40;;;;;;5007080;28;20669;-54
2022/05/13 02:40:17;;;;;;;3.78;2.03;;;25.70;47.40;;;;;;5007179;28;20042;-54
2022/05/13 02:42:42;;;;;;;3.03;1.90;;;25.70;47.40;;;;;;5007214;28;20401;-54
2022/05/13 02:45:09;;;;;;;3.55;2.00;;;25.70;47.40;;;;;;5006363;28;20042;-53
2022/05/13 02:47:36;;;;;;;3.55;2.20;;;25.70;47.50;;;;;;5006368;28;20045;-54
2022/05/13 02:50:18;;;;;;;3.08;1.70;;;25.70;48.10;;;;;;5006251;28;20273;-54
2022/05/13 02:52:50;;;;;;;3.27;1.83;;;25.70;47.50;;;;;;5006417;28;20029;-53
2022/05/13 02:55:16;;;;;;;3.80;2.10;;;25.70;47.50;;;;;;5006593;28;20026;-53
2022/05/13 02:57:42;;;;;;;3.35;1.40;;;25.70;47.50;;;;;;5005825;28;20052;-53
2022/05/13 03:00:09;;;;;;;2.65;1.70;;;25.60;47.40;;;;;;5006033;28;20029;-54
2022/05/13 03:02:36;;;;;;;2.85;1.70;;;25.60;47.40;;;;;;5005455;28;20391;-54
2022/05/13 03:05:02;;;;;;;3.42;2.10;;;25.60;47.40;;;;;;5006406;28;20021;-53
2022/05/13 03:07:28;;;;;;;3.80;1.92;;;25.70;47.40;;;;;;5006437;28;20037;-54
2022/05/13 03:09:54;;;;;;;3.05;1.63;;;25.60;47.40;;;;;;5006556;28;20026;-53
2022/05/13 03:12:20;;;;;;;2.92;1.65;;;25.60;47.50;;;;;;5005917;28;20045;-53
2022/05/13 03:14:45;;;;;;;3.20;1.60;;;25.60;47.50;;;;;;5004167;28;20030;-53
2022/05/13 03:17:11;;;;;;;3.10;1.85;;;25.60;47.50;;;;;;5004528;28;20045;-54
2022/05/13 03:19:39;;;;;;;2.88;1.55;;;25.60;47.60;;;;;;5004448;28;20065;-53
2022/05/13 03:22:06;;;;;;;3.08;1.80;;;25.60;47.60;;;;;;5006451;28;20025;-54
2022/05/13 03:24:32;;;;;;;3.95;1.60;;;25.60;47.60;;;;;;5004809;28;20022;-54
2022/05/13 03:26:58;;;;;;;3.00;1.73;;;25.60;47.60;;;;;;5005760;28;20038;-53
2022/05/13 03:29:24;;;;;;;2.83;1.63;;;25.60;47.60;;;;;;5003149;28;20038;-52
2022/05/13 03:31:50;;;;;;;3.17;1.75;;;25.60;47.60;;;;;;5005573;28;20022;-56
2022/05/13 03:34:16;;;;;;;3.33;1.73;;;25.60;47.60;;;;;;5005302;28;20038;-53
2022/05/13 03:36:42;;;;;;;2.67;1.55;;;25.60;47.60;;;;;;5004179;28;20033;-53
2022/05/13 03:39:07;;;;;;;3.03;1.90;;;25.60;47.60;;;;;;5005467;28;20026;-54
2022/05/13 03:41:33;;;;;;;2.97;1.60;;;25.60;47.60;;;;;;5005817;28;20022;-53
2022/05/13 03:43:59;;;;;;;2.00;1.20;;;25.60;47.70;;;;;;5005702;28;20418;-53
2022/05/13 03:46:25;;;;;;;2.97;1.40;;;25.60;47.60;;;;;;5005402;28;20037;-53
2022/05/13 03:48:51;;;;;;;2.97;1.45;;;25.60;47.60;;;;;;5005818;28;20059;-55
2022/05/13 03:51:16;;;;;;;2.97;1.52;;;25.60;47.60;;;;;;5005375;28;20033;-53
2022/05/13 03:53:42;;;;;;;2.45;1.55;;;25.60;47.60;;;;;;5006044;28;20029;-52
2022/05/13 03:56:08;;;;;;;3.08;1.55;;;25.60;47.60;;;;;;5005015;28;20030;-53
2022/05/13 03:58:34;;;;;;;2.30;1.35;;;25.60;47.60;;;;;;5005364;28;20044;-54
2022/05/13 04:01:02;;;;;;;2.78;1.40;;;25.60;47.60;;;;;;5005334;28;20033;-55
2022/05/13 04:03:28;;;;;;;2.65;1.50;;;25.60;47.60;;;;;;5004164;28;20030;-55
2022/05/13 04:08:56;;;;;;;2.95;1.70;;;25.60;47.60;;;;;;5005364;28;20053;-54
2022/05/13 04:16:04;;;;;;;2.90;1.58;;;25.60;47.60;;;;;;5005697;28;20053;-53
2022/05/13 04:17:12;;;;;;;2.80;1.35;;;25.60;47.60;;;;;;5004738;28;20133;-53
2022/05/13 04:19:38;;;;;;;3.00;1.63;;;25.60;47.70;;;;;;5004255;28;20097;-53
2022/05/13 04:22:04;;;;;;;2.10;1.27;;;25.60;48.40;;;;;;5005073;28;20026;-55
2022/05/13 04:24:30;;;;;;;2.67;1.42;;;25.60;47.70;;;;;;5004222;28;20537;-54
2022/05/13 04:26:56;;;;;;;2.95;1.45;;;25.60;47.70;;;;;;5004912;28;20025;-52
2022/05/13 04:29:21;;;;;;;2.05;1.30;;;25.60;47.70;;;;;;5004724;28;20052;-55
2022/05/13 04:31:47;;;;;;;1.90;1.05;;;25.60;47.70;;;;;;5005208;28;20037;-54
2022/05/13 04:34:13;;;;;;;4.68;1.63;;;25.60;47.60;;;;;;5005084;28;20025;-56
2022/05/13 04:36:39;;;;;;;1.92;1.10;;;25.60;47.60;;;;;;5005471;28;20022;-55
2022/05/13 04:39:05;;;;;;;2.20;1.13;;;25.60;47.60;;;;;;5005624;28;20025;-57
2022/05/13 04:44:17;;;;;;;2.40;1.40;;;25.50;47.60;;;;;;5004832;28;20025;-55
2022/05/13 04:46:44;;;;;;;1.90;1.20;;;25.50;47.50;;;;;;5004674;28;20521;-53
2022/05/13 04:49:10;;;;;;;2.72;1.33;;;25.50;47.50;;;;;;5004855;28;20026;-53
2022/05/13 04:51:36;;;;;;;2.70;1.17;;;25.50;47.50;;;;;;5004666;28;20053;-58
2022/05/13 04:54:03;;;;;;;2.22;1.10;;;25.60;47.50;;;;;;5002841;28;20026;-53
2022/05/13 04:56:30;;;;;;;2.20;1.25;;;25.60;47.40;;;;;;5002818;28;20026;-54
2022/05/13 04:58:56;;;;;;;2.65;1.40;;;25.50;47.30;;;;;;5004048;28;20108;-55
2022/05/13 05:01:22;;;;;;;2.58;1.50;;;25.50;47.40;;;;;;5002810;28;20022;-56
2022/05/13 05:03:49;;;;;;;2.13;1.20;;;25.50;47.40;;;;;;5003182;28;20065;-53
2022/05/13 05:06:16;;;;;;;2.45;1.17;;;25.60;47.10;;;;;;5003930;28;20117;-56
2022/05/13 05:08:43;;;;;;;3.45;1.20;;;25.50;47.40;;;;;;5003432;28;20030;-54
2022/05/13 05:11:11;;;;;;;2.00;1.10;;;25.50;47.40;;;;;;5001729;28;20080;-54
2022/05/13 05:13:47;;;;;;;2.75;1.25;;;25.50;47.60;;;;;;5001981;28;20026;-54
2022/05/13 05:16:15;;;;;;;2.40;1.33;;;25.50;47.50;;;;;;5004037;28;20052;-56
2022/05/13 05:18:41;;;;;;;3.58;1.40;;;25.60;47.50;;;;;;5003502;28;20022;-55
2022/05/13 05:21:09;;;;;;;2.20;1.15;;;25.50;47.80;;;;;;5002311;28;20101;-55
2022/05/13 05:23:38;;;;;;;2.42;1.20;;;25.50;47.80;;;;;;5003325;28;20136;-52
2022/05/13 05:26:05;;;;;;;2.17;1.25;;;25.50;47.80;;;;;;5002432;28;20389;-55
2022/05/13 05:28:31;;;;;;;4.05;1.40;;;25.50;48.10;;;;;;5002122;28;20054;-53
2022/05/13 05:31:00;;;;;;;2.75;1.15;;;25.50;48.50;;;;;;5002567;28;20052;-53
2022/05/13 05:33:26;;;;;;;2.78;1.40;;;25.50;48.50;;;;;;4994638;28;20473;-53
2022/05/13 05:35:52;;;;;;;3.13;1.30;;;25.60;48.70;;;;;;5002936;28;20437;-52
2022/05/13 05:38:18;;;;;;;2.63;1.50;;;25.50;48.70;;;;;;5002224;28;20264;-53
2022/05/13 05:40:44;;;;;;;3.42;1.70;;;25.50;48.90;;;;;;5003235;28;20036;-54
2022/05/13 05:43:15;;;;;;;2.35;1.20;;;25.60;48.90;;;;;;5002388;28;20045;-54
2022/05/13 05:45:41;;;;;;;4.57;1.77;;;25.50;48.80;;;;;;5003097;28;20084;-54
2022/05/13 05:48:09;;;;;;;3.53;1.63;;;25.50;48.90;;;;;;5001376;28;20030;-52
2022/05/13 05:50:35;;;;;;;2.83;1.52;;;25.50;48.90;;;;;;5003391;28;20033;-52
2022/05/13 05:53:01;;;;;;;2.92;1.60;;;25.50;48.80;;;;;;5004175;28;20030;-52
2022/05/13 05:58:16;;;;;;;2.60;1.50;;;25.50;49.10;;;;;;4984724;28;20030;-53
2022/05/13 06:00:45;;;;;;;3.25;1.60;;;25.50;49.20;;;;;;4990274;28;21009;-50
2022/05/13 06:03:11;;;;;;;3.75;1.65;;;25.50;49.00;;;;;;4993146;28;20029;-50
2022/05/13 06:05:37;;;;;;;2.25;1.23;;;25.50;49.20;;;;;;5004614;28;20088;-46
2022/05/13 06:08:04;;;;;;;3.53;1.65;;;25.50;49.10;;;;;;5005830;28;20705;-47
2022/05/13 06:10:32;;;;;;;4.18;1.75;;;25.50;49.70;;;;;;5003397;28;20051;-48
2022/05/13 06:12:58;;;;;;;2.70;1.75;;;25.50;49.90;;;;;;5005893;28;20026;-47
2022/05/13 06:15:24;;;;;;;3.50;1.90;;;25.50;50.10;;;;;;5006850;28;20068;-48
2022/05/13 06:17:55;;;;;;;3.13;1.70;;;25.50;50.00;;;;;;5005917;28;20044;-47
2022/05/13 06:20:25;;;;;;;3.33;1.55;;;25.50;49.90;;;;;;5006865;28;20022;-46
2022/05/13 06:22:51;;;;;;;3.67;1.83;;;25.50;49.80;;;;;;5006084;28;20070;-47
2022/05/13 06:25:21;;;;;;;4.30;1.75;;;25.50;49.80;;;;;;5005975;28;20053;-50
2022/05/13 06:27:51;;;;;;;2.95;1.55;;;25.50;49.60;;;;;;5002154;28;20342;-50
2022/05/13 06:30:20;;;;;;;3.55;1.58;;;25.50;49.50;;;;;;5005031;28;20029;-49
2022/05/13 06:32:46;;;;;;;3.15;1.90;;;25.50;49.40;;;;;;5001563;28;20064;-51
2022/05/13 06:35:12;;;;;;;3.65;1.95;;;25.50;49.30;;;;;;5004479;28;20486;-50
2022/05/13 06:37:38;;;;;;;4.68;1.92;;;25.50;49.50;;;;;;5004721;28;20029;-50
2022/05/13 06:40:06;;;;;;;3.75;1.55;;;25.50;49.50;;;;;;5003311;28;20022;-50
2022/05/13 06:42:32;;;;;;;3.25;1.60;;;25.50;49.30;;;;;;4999276;28;20719;-51
2022/05/13 06:44:58;;;;;;;4.28;1.95;;;25.50;49.50;;;;;;4998489;28;20043;-51
2022/05/13 06:47:23;;;;;;;3.22;1.95;;;25.60;49.60;;;;;;5006856;28;20030;-52
2022/05/13 06:49:49;;;;;;;3.72;2.10;;;25.50;49.50;;;;;;5005244;28;20482;-49
2022/05/13 06:52:15;;;;;;;5.88;2.08;;;25.60;50.20;;;;;;5005374;28;20673;-51
2022/05/13 06:54:42;;;;;;;4.85;2.22;;;25.50;50.00;;;;;;5001029;28;20025;-46
2022/05/13 06:57:09;;;;;;;3.67;2.10;;;25.50;50.30;;;;;;5005961;28;20525;-47
2022/05/13 06:59:35;;;;;;;6.45;2.55;;;25.60;50.30;;;;;;5002766;28;20038;-46
2022/05/13 07:02:01;;;;;;;3.20;1.85;;;25.50;50.90;;;;;;5006774;28;20026;-45
2022/05/13 07:04:26;;;;;;;3.80;1.95;;;25.50;50.30;;;;;;5005592;28;20037;-45
2022/05/13 07:06:52;;;;;;;3.85;2.10;;;25.60;50.30;;;;;;5006499;28;20669;-50
2022/05/13 07:09:18;;;;;;;4.50;1.95;;;25.50;50.50;;;;;;5006588;28;20037;-48
2022/05/13 07:11:46;;;;;;;3.25;1.80;;;25.50;50.30;;;;;;4997408;28;20398;-47
2022/05/13 07:14:12;;;;;;;3.05;1.73;;;25.50;50.40;;;;;;4996755;28;20029;-48
2022/05/13 07:16:38;;;;;;;2.80;1.73;;;25.60;50.10;;;;;;5006121;28;20088;-49
2022/05/13 07:19:06;;;;;;;3.05;1.67;;;25.50;49.90;;;;;;4996979;28;20026;-48
2022/05/13 07:21:33;;;;;;;3.63;1.73;;;25.60;50.10;;;;;;5004943;28;20433;-48
2022/05/13 07:23:58;;;;;;;3.53;1.80;;;25.60;49.80;;;;;;5002147;28;20044;-49
2022/05/13 07:26:24;;;;;;;3.42;1.75;;;25.50;49.70;;;;;;5000754;28;20393;-50
2022/05/13 07:28:50;;;;;;;5.20;2.00;;;25.60;49.60;;;;;;5005347;28;20034;-49
2022/05/13 07:31:15;;;;;;;3.50;1.80;;;25.60;49.50;;;;;;5006286;28;20113;-50
2022/05/13 07:33:41;;;;;;;2.80;1.65;;;25.50;49.50;;;;;;5005122;28;20034;-49
2022/05/13 07:36:07;;;;;;;3.65;1.75;;;25.50;49.40;;;;;;5003346;28;20037;-48
2022/05/13 07:38:34;;;;;;;4.65;1.90;;;25.50;49.40;;;;;;5005369;28;20040;-48
2022/05/13 07:41:20;;;;;;;3.38;1.73;;;25.50;49.40;;;;;;5006188;28;20033;-50
2022/05/13 07:43:47;;;;;;;2.88;1.60;;;25.50;49.40;;;;;;5005606;28;20104;-48
2022/05/13 07:46:13;;;;;;;3.03;2.15;;;25.50;49.30;;;;;;5006068;28;20377;-48
2022/05/13 07:48:40;;;;;;;4.55;2.45;;;25.50;49.70;;;;;;5005996;28;20090;-49
2022/05/13 07:51:07;;;;;;;4.90;2.10;;;25.50;49.60;;;;;;5006282;28;20450;-49
2022/05/13 07:53:33;;;;;;;3.83;1.92;;;25.50;49.70;;;;;;5006045;28;20259;-48
2022/05/13 07:55:59;;;;;;;3.47;1.60;;;25.60;49.70;;;;;;5006305;28;20044;-49
2022/05/13 07:58:25;;;;;;;3.53;1.92;;;25.50;49.70;;;;;;5002139;28;20267;-49
2022/05/13 08:00:51;;;;;;;2.47;1.42;;;25.50;49.70;;;;;;5003544;28;20069;-50
2022/05/13 08:03:17;;;;;;;3.42;2.00;;;25.50;49.70;;;;;;5006006;28;20026;-51
2022/05/13 08:05:47;;;;;;;3.88;1.95;;;25.50;49.70;;;;;;5005997;28;20133;-49
2022/05/13 08:08:24;;;;;;;3.88;1.70;;;25.50;49.60;;;;;;5005874;28;20043;-50
2022/05/13 08:10:54;;;;;;;3.17;1.75;;;25.50;49.60;;;;;;5005649;28;20505;-49
2022/05/13 08:13:21;;;;;;;4.65;2.00;;;25.50;49.60;;;;;;5004135;28;20030;-50
2022/05/13 08:15:47;;;;;;;3.05;1.77;;;25.50;49.70;;;;;;5005645;28;20025;-49
2022/05/13 08:18:15;;;;;;;3.30;1.60;;;25.50;49.70;;;;;;5005884;28;20080;-50
2022/05/13 08:20:42;;;;;;;2.50;1.35;;;25.50;49.70;;;;;;5006013;28;20029;-50
2022/05/13 08:23:08;;;;;;;4.63;1.83;;;25.50;49.70;;;;;;5006049;28;20629;-49
2022/05/13 08:25:34;;;;;;;3.53;1.70;;;25.50;49.60;;;;;;5005583;28;20026;-50
2022/05/13 08:28:00;;;;;;;4.13;1.88;;;25.60;49.60;;;;;;5003809;28;20142;-50
2022/05/13 08:30:26;;;;;;;5.03;1.90;;;25.50;49.70;;;;;;5005961;28;20125;-50
2022/05/13 08:32:52;;;;;;;3.17;1.88;;;25.50;49.60;;;;;;5005546;28;20564;-50
2022/05/13 08:35:19;;;;;;;3.30;1.75;;;25.50;49.70;;;;;;5003980;28;20049;-49
2022/05/13 08:37:51;;;;;;;2.88;1.58;;;25.50;49.70;;;;;;5001309;28;20045;-50
2022/05/13 08:40:55;;;;;;;3.67;1.73;;;25.60;49.60;;;;;;5005645;28;20026;-49
2022/05/13 08:43:34;;;;;;;3.75;1.60;;;25.50;49.50;;;;;;5005522;28;20068;-51
2022/05/13 08:46:05;;;;;;;4.03;1.45;;;25.50;49.50;;;;;;5005351;28;20040;-49
2022/05/13 08:48:50;;;;;;;3.63;1.45;;;25.50;49.50;;;;;;5000686;28;20696;-50
2022/05/13 08:51:28;;;;;;;4.30;1.95;;;25.50;49.90;;;;;;4998060;28;20034;-49
2022/05/13 08:54:11;;;;;;;3.10;2.00;;;25.50;50.40;;;;;;5003083;28;20038;-50
2022/05/13 08:56:38;;;;;;;3.40;1.90;;;25.50;50.40;;;;;;4998588;28;20068;-50
2022/05/13 08:59:08;;;;;;;3.78;2.00;;;25.40;51.30;;;;;;5000169;28;20030;-50
2022/05/13 09:01:45;;;;;;;4.20;2.15;;;25.40;51.10;;;;;;4997201;28;20068;-49
2022/05/13 09:04:36;;;;;;;2.63;1.67;;;25.40;51.20;;;;;;5001544;28;20026;-50
2022/05/13 09:07:05;;;;;;;5.45;2.20;;;25.30;51.60;;;;;;5003917;28;20033;-50
2022/05/13 09:09:32;;;;;;;4.82;1.98;;;25.20;51.50;;;;;;5003821;28;20058;-49
2022/05/13 09:12:18;;;;;;;4.55;1.90;;;25.20;51.60;;;;;;5004233;28;20107;-49
2022/05/13 09:15:04;;;;;;;5.05;2.03;;;25.20;51.80;;;;;;5003795;28;20038;-49
2022/05/13 09:17:53;;;;;;;4.78;2.10;;;25.20;52.10;;;;;;5003851;28;20030;-49
2022/05/13 09:20:21;;;;;;;3.13;2.00;;;25.10;52.20;;;;;;4998257;28;20038;-49
2022/05/13 09:22:58;;;;;;;5.13;2.42;;;25.20;52.60;;;;;;5004438;28;20076;-49
2022/05/13 09:25:36;;;;;;;4.75;2.47;;;25.10;53.70;;;;;;5003474;28;20030;-49
2022/05/13 09:28:13;;;;;;;3.30;2.03;;;24.90;53.80;;;;;;5002285;28;20022;-49
2022/05/13 09:30:49;;;;;;;3.30;1.95;;;24.90;53.90;;;;;;5004060;28;20026;-49
2022/05/13 09:33:30;;;;;;;4.45;2.67;;;24.80;54.20;;;;;;5003990;28;20128;-49
2022/05/13 09:36:07;;;;;;;3.95;2.67;;;24.60;54.10;;;;;;5003773;28;20069;-49
2022/05/13 09:38:46;;;;;;;3.97;2.70;;;24.50;54.40;;;;;;5003304;28;20421;-49
2022/05/13 09:41:13;;;;;;;4.45;2.85;;;24.40;54.30;;;;;;5003545;28;20022;-48
2022/05/13 09:44:18;;;;;;;3.95;2.67;;;24.30;54.80;;;;;;5002215;28;20600;-45
2022/05/13 09:46:51;;;;;;;3.85;2.90;;;24.20;54.80;;;;;;5003588;28;20026;-50
2022/05/13 09:49:28;;;;;;;4.70;2.87;;;24.20;55.20;;;;;;5003686;28;20041;-49
2022/05/13 09:52:07;;;;;;;3.75;2.50;;;24.20;55.40;;;;;;5003532;28;20261;-50
2022/05/13 09:54:35;;;;;;;3.80;2.92;;;24.10;55.40;;;;;;5003267;28;20034;-52
2022/05/13 09:57:09;;;;;;;4.78;3.00;;;24.00;55.60;;;;;;5002783;28;20033;-51
2022/05/13 09:59:51;;;;;;;4.75;3.08;;;24.00;55.40;;;;;;5002733;28;20034;-50
2022/05/13 10:02:29;;;;;;;5.68;3.15;;;24.00;55.50;;;;;;5002717;28;20037;-51
2022/05/13 10:05:10;;;;;;;5.00;3.70;;;23.90;55.50;;;;;;5002549;28;20022;-51
2022/05/13 10:07:53;;;;;;;5.30;3.67;;;23.70;55.60;;;;;;5003052;28;20029;-51
2022/05/13 10:15:58;;;;;;;5.88;3.42;;;23.70;56.00;;;;;;5000936;28;20088;-48
2022/05/13 10:18:30;;;;;;;4.60;3.22;;;23.60;56.30;;;;;;5001925;28;20368;-48
2022/05/13 10:21:05;;;;;;;4.40;3.33;;;23.60;55.90;;;;;;5001753;28;20743;-53
2022/05/13 10:23:43;;;;;;;4.00;2.60;;;23.70;55.80;;;;;;5001864;28;20658;-53
2022/05/13 10:26:14;;;;;;;5.18;3.13;;;23.70;55.90;;;;;;5003339;28;20435;-52
2022/05/13 10:29:19;;;;;;;4.07;2.67;;;23.80;56.10;;;;;;5002636;28;20042;-53
2022/05/13 10:31:46;;;;;;;4.63;3.22;;;23.80;58.70;;;;;;5001249;28;20053;-53
2022/05/13 10:34:21;;;;;;;5.18;3.67;;;23.90;59.30;;;;;;5003003;28;20729;-52
2022/05/13 10:37:14;;;;;;;3.80;2.50;;;24.00;59.00;;;;;;5003053;28;20079;-52
2022/05/13 10:39:44;;;;;;;;;;;24.00;58.00;;;;;;5005930;28;20061;-52
2022/05/13 10:42:22;;;;;;;4.88;2.60;;;24.10;57.50;;;;;;5006524;28;19933;-52
2022/05/13 10:44:59;;;;;;;4.38;2.90;;;24.10;57.30;;;;;;5006565;28;20073;-52
2022/05/13 10:47:41;;;;;;;5.30;3.10;;;24.10;57.10;;;;;;5006082;28;20124;-53
2022/05/13 10:50:22;;;;;;;8.57;3.88;;;24.10;56.60;;;;;;5006730;28;20703;-53
2022/05/13 10:52:58;;;;;;;5.75;3.63;;;24.20;56.40;;;;;;5006705;28;20025;-52
2022/05/13 10:55:40;;;;;;;5.10;3.58;;;24.20;55.70;;;;;;5006758;28;20030;-53
2022/05/13 10:58:25;;;;;;;6.23;3.67;;;24.20;54.70;;;;;;5005939;28;20029;-52
2022/05/13 11:01:40;;;;;;;4.90;4.00;;;24.10;54.90;;;;;;4987024;28;20034;-48
2022/05/13 11:04:33;;;;;;;5.53;4.50;;;24.10;54.00;;;;;;4997507;28;20058;-47
2022/05/13 11:07:19;;;;;;;6.22;3.95;;;24.10;54.50;;;;;;5005386;28;20096;-49
2022/05/13 11:10:21;;;;;;;4.63;4.10;;;24.10;54.40;;;;;;4987069;28;20761;-51
2022/05/13 11:13:17;;;;;;;6.97;4.43;;;24.00;54.70;;;;;;4986765;28;20026;-49
2022/05/13 11:15:49;;;;;;;5.60;4.53;;;24.00;54.40;;;;;;4986492;28;20084;-49
2022/05/13 11:18:52;;;;;;;5.88;3.85;;;23.90;53.80;;;;;;4986576;28;20117;-49
2022/05/13 11:21:56;;;;;;;5.05;3.78;;;23.90;54.20;;;;;;4986508;28;20062;-53
2022/05/13 11:27:19;;;;;;;;;;;23.90;54.50;;;;;;4998397;28;20048;-53
2022/05/13 11:30:00;;;;;;;5.47;4.03;;;23.90;54.60;;;;;;5005190;28;19909;-53
2022/05/13 11:32:38;;;;;;;5.20;4.15;;;23.90;54.80;;;;;;5001330;28;20044;-48
2022/05/13 11:35:10;;;;;;;6.13;4.32;;;23.90;55.50;;;;;;5005094;28;20486;-49
2022/05/13 11:37:39;;;;;;;5.35;4.40;;;23.90;55.20;;;;;;5003306;28;20148;-49
2022/05/13 11:40:28;;;;;;;6.07;4.43;;;23.90;54.80;;;;;;5005235;28;20018;-49
2022/05/13 11:43:18;;;;;;;5.07;4.22;;;23.80;53.80;;;;;;5003365;28;20085;-51
2022/05/13 11:46:01;;;;;;;5.00;4.40;;;23.90;54.10;;;;;;5005005;28;20386;-49
2022/05/13 11:48:44;;;;;;;4.97;4.32;;;23.90;54.90;;;;;;5003579;28;20513;-51
2022/05/13 11:51:26;;;;;;;5.95;4.55;;;23.90;55.00;;;;;;5003911;28;20038;-49
2022/05/13 11:54:01;;;;;;;7.03;4.38;;;23.90;55.00;;;;;;5003686;28;20111;-47
2022/05/13 11:56:28;;;;;;;5.28;3.97;;;24.00;53.30;;;;;;5002947;28;20971;-48
2022/05/13 11:59:03;;;;;;;4.78;3.55;;;24.00;53.70;;;;;;4995433;28;20027;-46
2022/05/13 12:01:37;;;;;;;5.45;4.18;;;23.90;53.20;;;;;;5003680;28;20074;-47
2022/05/13 12:04:31;;;;;;;4.60;3.50;;;23.90;52.30;;;;;;5003862;28;20030;-49
2022/05/13 12:06:58;;;;;;;;;;;23.90;53.00;;;;;;5003885;28;20045;-50
2022/05/13 12:09:26;;;;;;;5.90;3.10;;;23.90;52.80;;;;;;4999472;28;20518;-48
2022/05/13 12:11:52;;;;;;;4.20;3.20;;;24.00;53.20;;;;;;5005596;28;20068;-51
2022/05/13 12:14:27;;;;;;;3.80;2.88;;;24.00;53.10;;;;;;4998841;28;20780;-51
2022/05/13 12:17:04;;;;;;;3.88;3.10;;;24.00;53.40;;;;;;4998736;28;20026;-49
2022/05/13 12:19:34;;;;;;;5.05;3.10;;;24.00;53.40;;;;;;4999547;28;20081;-48
2022/05/13 12:22:21;;;;;;;4.65;3.35;;;24.10;53.70;;;;;;5000939;28;20106;-49
2022/05/13 12:25:07;;;;;;;5.10;3.00;;;24.10;53.10;;;;;;4998977;28;20049;-50
2022/05/13 12:27:35;;;;;;;5.20;3.17;;;24.10;52.70;;;;;;4998663;28;20087;-51
2022/05/13 12:30:29;;;;;;;5.00;3.42;;;24.20;52.90;;;;;;5003333;28;20393;-51
2022/05/13 12:32:56;;;;;;;4.30;3.20;;;24.20;52.40;;;;;;5003957;28;20033;-50
2022/05/13 12:39:23;;;;;;;4.30;3.03;;;24.20;52.00;;;;;;5000016;28;20048;-50
2022/05/13 12:42:10;;;;;;;4.05;2.75;;;24.20;50.90;;;;;;4962799;28;20109;-51
2022/05/13 12:44:42;;;;;;;5.28;3.35;;;24.30;51.70;;;;;;4962209;28;20126;-53
2022/05/13 12:47:14;;;;;;;4.90;3.38;;;24.20;51.20;;;;;;4991739;28;20117;-51
2022/05/13 12:49:49;;;;;;;4.25;3.15;;;24.20;51.20;;;;;;5004686;28;20465;-49
2022/05/13 12:52:27;;;;;;;4.50;3.10;;;24.20;50.80;;;;;;5004509;28;20666;-49
2022/05/13 12:55:04;;;;;;;3.72;2.60;;;24.20;51.20;;;;;;5004440;28;20713;-50
2022/05/13 12:57:50;;;;;;;4.80;3.30;;;24.30;50.70;;;;;;5004048;28;20045;-49
2022/05/13 13:00:23;;;;;;;4.25;2.88;;;24.30;50.90;;;;;;5004423;28;20042;-50
2022/05/13 13:02:53;;;;;;;3.55;2.80;;;24.30;50.90;;;;;;5004874;28;20030;-51
2022/05/13 13:05:33;;;;;;;5.15;2.90;;;24.30;51.10;;;;;;5003870;28;20206;-54
2022/05/13 13:08:22;;;;;;;4.32;2.70;;;24.40;51.10;;;;;;5004076;28;20036;-52
2022/05/13 13:11:04;;;;;;;3.53;2.50;;;24.40;50.20;;;;;;5001683;28;20044;-51
2022/05/13 13:13:49;;;;;;;3.58;2.58;;;24.50;50.70;;;;;;5001454;28;20026;-56
2022/05/13 13:16:32;;;;;;;4.45;2.28;;;24.50;49.90;;;;;;5004356;28;20025;-55
2022/05/13 13:19:20;;;;;;;5.47;2.85;;;24.50;50.60;;;;;;5004795;28;20565;-55
2022/05/13 13:21:51;;;;;;;3.80;2.65;;;24.50;50.90;;;;;;5003533;28;20361;-53
2022/05/13 13:24:26;;;;;;;4.28;3.15;;;24.60;49.70;;;;;;5003815;28;20032;-54
2022/05/13 13:26:52;;;;;;;4.07;2.67;;;24.60;50.40;;;;;;5003155;28;20061;-55
2022/05/13 13:29:32;;;;;;;4.47;3.05;;;24.60;49.60;;;;;;5003669;28;20042;-55
2022/05/13 13:32:00;;;;;;;4.40;2.75;;;24.70;50.10;;;;;;4999141;28;20030;-54
2022/05/13 13:34:38;;;;;;;4.32;2.90;;;24.70;50.30;;;;;;5003160;28;20026;-54